Time;durP1;ratioP1;P1;durP2;ratioP2;P2;SDS_P1;SDS_P2;PMS_P1;PMS_P2;Temp;Humidity;BMP_temperature;BMP_pressure;BME280_temperature;BME280_humidity;BME280_pressure;Samples;Min_cycle;Max_cycle;Signal;HPM_P1;HPM_P2
2022/11/27 00:00:24;;;;;;;3.33;1.40;;;9.40;99.90;;;;;;5022352;28;20048;-87
2022/11/27 00:02:50;;;;;;;3.95;1.48;;;9.40;99.90;;;;;;5019275;28;20025;-88
2022/11/27 00:05:16;;;;;;;9.00;2.20;;;9.40;99.90;;;;;;4996105;28;20413;-87
2022/11/27 00:07:41;;;;;;;4.75;1.77;;;9.40;99.90;;;;;;5025067;28;20056;-86
2022/11/27 00:10:07;;;;;;;4.33;1.60;;;9.40;99.90;;;;;;5021125;28;20711;-85
2022/11/27 00:12:34;;;;;;;6.05;1.80;;;9.40;99.90;;;;;;5027689;28;20029;-85
2022/11/27 00:14:59;;;;;;;3.42;1.60;;;9.40;99.90;;;;;;5012256;28;20267;-85
2022/11/27 00:17:25;;;;;;;6.87;1.97;;;9.50;99.90;;;;;;5029847;28;20117;-88
2022/11/27 00:19:51;;;;;;;3.25;1.70;;;9.50;99.90;;;;;;4993701;28;21542;-84
2022/11/27 00:22:16;;;;;;;3.77;1.80;;;9.50;99.90;;;;;;5008262;28;20491;-87
2022/11/27 00:24:43;;;;;;;4.32;1.88;;;9.50;99.90;;;;;;5033000;28;20170;-87
2022/11/27 00:27:09;;;;;;;4.40;1.70;;;9.50;99.90;;;;;;5025293;28;20497;-87
2022/11/27 00:29:34;;;;;;;2.83;1.60;;;9.60;99.90;;;;;;5021963;28;20036;-84
2022/11/27 00:32:00;;;;;;;8.73;1.98;;;9.60;99.90;;;;;;5014740;28;20053;-87
2022/11/27 00:34:26;;;;;;;3.90;1.87;;;9.60;99.90;;;;;;5018455;28;20140;-85
2022/11/27 00:36:52;;;;;;;3.70;1.80;;;9.60;99.90;;;;;;5005704;28;20173;-85
2022/11/27 00:39:17;;;;;;;3.40;1.40;;;9.60;99.90;;;;;;5028611;28;20279;-84
2022/11/27 00:41:44;;;;;;;5.53;1.75;;;9.60;99.90;;;;;;5003064;28;21104;-86
2022/11/27 00:44:11;;;;;;;5.43;2.10;;;9.60;99.90;;;;;;5045762;28;20040;-83
2022/11/27 00:46:37;;;;;;;4.82;2.10;;;9.60;99.90;;;;;;5016952;28;20338;-87
2022/11/27 00:49:05;;;;;;;6.72;2.20;;;9.60;99.90;;;;;;5017387;28;20831;-86
2022/11/27 00:51:31;;;;;;;4.57;1.50;;;9.60;99.90;;;;;;4983528;28;20079;-87
2022/11/27 00:53:57;;;;;;;4.30;1.60;;;9.60;99.90;;;;;;5026677;28;20032;-87
2022/11/27 00:56:26;;;;;;;4.07;1.40;;;9.70;99.90;;;;;;5046375;28;20022;-86
2022/11/27 00:58:52;;;;;;;4.80;1.70;;;9.60;99.90;;;;;;5021302;28;20262;-87
2022/11/27 01:01:21;;;;;;;3.88;1.70;;;9.70;99.90;;;;;;5042510;28;20036;-87
2022/11/27 01:03:47;;;;;;;3.10;1.40;;;9.70;99.90;;;;;;5026474;28;20029;-87
2022/11/27 01:06:14;;;;;;;3.38;1.48;;;9.70;99.90;;;;;;5009735;28;20025;-85
2022/11/27 01:08:40;;;;;;;6.07;2.08;;;9.70;99.90;;;;;;5008726;28;20029;-84
2022/11/27 01:11:06;;;;;;;3.90;1.60;;;9.70;99.90;;;;;;5033050;28;20060;-86
2022/11/27 01:13:35;;;;;;;3.33;1.80;;;9.70;99.90;;;;;;5005257;28;20478;-87
2022/11/27 01:16:04;;;;;;;3.97;1.75;;;9.70;99.90;;;;;;5019205;28;20117;-87
2022/11/27 01:18:30;;;;;;;3.95;1.90;;;9.70;99.90;;;;;;5026971;28;20039;-86
2022/11/27 01:20:56;;;;;;;3.75;1.70;;;9.70;99.90;;;;;;5005210;28;20470;-87
2022/11/27 01:23:22;;;;;;;4.60;1.80;;;9.70;99.90;;;;;;4995638;28;20072;-87
2022/11/27 01:25:49;;;;;;;4.25;1.80;;;9.80;99.90;;;;;;5031058;28;20032;-85
2022/11/27 01:28:16;;;;;;;5.55;2.00;;;9.80;99.90;;;;;;5040100;28;20036;-87
2022/11/27 01:30:41;;;;;;;5.23;1.90;;;9.80;99.90;;;;;;5031118;28;20030;-86
2022/11/27 01:33:07;;;;;;;5.68;1.90;;;9.80;99.90;;;;;;5022648;28;20448;-86
2022/11/27 01:35:33;;;;;;;4.83;1.70;;;9.80;99.90;;;;;;5062429;28;20026;-87
2022/11/27 01:37:59;;;;;;;3.83;1.77;;;9.80;99.90;;;;;;5001144;28;20053;-87
2022/11/27 01:40:25;;;;;;;4.53;1.63;;;9.80;99.90;;;;;;5043271;28;20016;-86
2022/11/27 01:42:50;;;;;;;3.53;1.40;;;9.80;99.90;;;;;;5031665;28;20029;-87
2022/11/27 01:45:18;;;;;;;3.47;1.40;;;9.80;99.90;;;;;;5035237;28;20289;-87
2022/11/27 01:47:47;;;;;;;3.72;1.85;;;9.80;99.90;;;;;;5028863;28;20037;-87
2022/11/27 01:50:25;;;;;;;2.73;1.40;;;9.80;99.90;;;;;;5016119;28;20047;-87
2022/11/27 01:53:00;;;;;;;2.85;1.40;;;9.80;99.90;;;;;;5011084;28;20029;-87
2022/11/27 01:55:33;;;;;;;3.30;1.42;;;9.80;99.90;;;;;;5019271;28;20065;-86
2022/11/27 01:58:05;;;;;;;2.75;1.30;;;9.80;99.90;;;;;;5012824;28;20543;-87
2022/11/27 02:00:31;;;;;;;3.67;1.50;;;9.80;99.90;;;;;;5050911;28;20516;-86
2022/11/27 02:02:58;;;;;;;4.87;1.60;;;9.80;99.90;;;;;;5013870;28;20029;-87
2022/11/27 02:05:27;;;;;;;3.28;1.38;;;9.80;99.90;;;;;;5029869;28;20473;-86
2022/11/27 02:07:55;;;;;;;3.28;1.50;;;9.80;99.90;;;;;;5014416;28;20035;-85
2022/11/27 02:10:27;;;;;;;3.88;1.35;;;9.80;99.90;;;;;;4993056;28;20030;-87
2022/11/27 02:13:00;;;;;;;3.63;1.50;;;9.80;99.90;;;;;;5034964;28;20481;-87
2022/11/27 02:15:30;;;;;;;3.83;1.70;;;9.70;99.90;;;;;;5009303;28;20033;-86
2022/11/27 02:18:09;;;;;;;2.85;1.58;;;9.80;99.90;;;;;;5007825;28;20057;-86
2022/11/27 02:20:45;;;;;;;3.72;1.35;;;9.70;99.90;;;;;;5032361;28;20090;-87
2022/11/27 02:23:31;;;;;;;3.42;1.58;;;9.70;99.90;;;;;;5031975;28;20048;-86
2022/11/27 02:26:09;;;;;;;3.33;1.55;;;9.70;99.90;;;;;;4970477;28;20025;-86
2022/11/27 02:29:11;;;;;;;2.50;1.30;;;9.70;99.90;;;;;;5028696;28;20087;-87
2022/11/27 02:31:42;;;;;;;4.28;1.60;;;9.70;99.90;;;;;;5014457;28;20395;-86
2022/11/27 02:34:21;;;;;;;3.78;1.35;;;9.70;99.90;;;;;;5021300;28;20390;-87
2022/11/27 02:36:56;;;;;;;3.78;1.30;;;9.70;99.90;;;;;;5050131;28;20029;-87
2022/11/27 02:39:29;;;;;;;2.95;1.58;;;9.70;99.90;;;;;;5037222;28;20032;-85
2022/11/27 02:42:02;;;;;;;3.83;1.27;;;9.70;99.90;;;;;;4996592;28;20392;-87
2022/11/27 02:44:32;;;;;;;2.75;1.40;;;9.70;99.90;;;;;;5020604;28;20080;-86
2022/11/27 02:46:58;;;;;;;3.63;1.20;;;9.70;99.90;;;;;;5012311;28;20044;-87
2022/11/27 02:49:25;;;;;;;2.83;1.10;;;9.70;99.90;;;;;;5040326;28;20402;-85
2022/11/27 02:51:55;;;;;;;2.28;1.15;;;9.70;99.90;;;;;;5028881;28;20048;-84
2022/11/27 02:54:27;;;;;;;2.20;1.00;;;9.70;99.90;;;;;;5033011;28;20048;-87
2022/11/27 02:56:55;;;;;;;1.70;0.80;;;9.70;99.90;;;;;;5007697;28;20485;-86
2022/11/27 02:59:24;;;;;;;2.13;1.10;;;9.80;99.90;;;;;;5034279;28;22603;-85
2022/11/27 03:01:57;;;;;;;2.95;1.05;;;9.80;99.90;;;;;;5018175;28;20033;-87
2022/11/27 03:04:33;;;;;;;2.17;1.02;;;9.80;99.90;;;;;;5022749;28;20055;-85
2022/11/27 03:07:05;;;;;;;2.97;1.10;;;9.80;99.90;;;;;;5038410;28;20057;-87
2022/11/27 03:09:45;;;;;;;1.80;1.00;;;9.80;99.90;;;;;;5030427;28;20033;-86
2022/11/27 03:12:12;;;;;;;2.10;0.93;;;9.80;99.90;;;;;;5019281;28;20266;-87
2022/11/27 03:14:40;;;;;;;1.52;0.80;;;9.80;99.90;;;;;;5018892;28;20233;-85
2022/11/27 03:17:24;;;;;;;1.92;1.10;;;9.90;99.90;;;;;;4990109;28;20110;-87
2022/11/27 03:20:09;;;;;;;2.17;0.97;;;9.80;99.90;;;;;;5047735;28;20302;-86
2022/11/27 03:22:34;;;;;;;2.20;1.00;;;9.80;99.90;;;;;;5033356;28;20029;-87
2022/11/27 03:25:00;;;;;;;2.08;0.93;;;9.80;99.90;;;;;;5028199;28;20031;-87
2022/11/27 03:27:31;;;;;;;2.83;0.87;;;9.90;99.90;;;;;;5012274;28;20036;-83
2022/11/27 03:30:00;;;;;;;1.90;1.15;;;9.90;99.90;;;;;;5006812;28;20136;-87
2022/11/27 03:32:29;;;;;;;1.85;0.80;;;9.90;99.90;;;;;;5039060;28;20030;-86
2022/11/27 03:34:55;;;;;;;1.95;1.00;;;9.80;99.90;;;;;;5019459;28;20499;-86
2022/11/27 03:37:22;;;;;;;1.50;0.90;;;9.90;99.90;;;;;;5034172;28;20014;-87
2022/11/27 03:39:48;;;;;;;1.63;0.90;;;9.90;99.90;;;;;;5035407;28;20017;-86
2022/11/27 03:42:17;;;;;;;2.50;1.20;;;9.90;99.90;;;;;;5047549;28;20368;-86
2022/11/27 03:45:01;;;;;;;2.30;1.15;;;9.90;99.90;;;;;;4992049;28;20668;-86
2022/11/27 03:47:49;;;;;;;2.30;0.80;;;9.90;99.90;;;;;;5025324;28;20045;-87
2022/11/27 03:50:30;;;;;;;2.00;0.90;;;9.90;99.90;;;;;;5009093;28;20337;-84
2022/11/27 03:53:35;;;;;;;2.87;1.10;;;9.90;99.90;;;;;;5014740;28;20604;-87
2022/11/27 03:56:22;;;;;;;3.25;1.55;;;9.90;99.90;;;;;;5050795;28;20048;-86
2022/11/27 03:58:54;;;;;;;1.77;1.00;;;9.90;99.90;;;;;;5027066;28;20355;-87
2022/11/27 04:01:23;;;;;;;1.80;0.90;;;9.90;99.90;;;;;;5017447;28;20027;-87
2022/11/27 04:03:49;;;;;;;3.50;1.10;;;9.90;99.90;;;;;;5018498;28;20258;-87
2022/11/27 04:06:15;;;;;;;1.90;1.00;;;9.90;99.90;;;;;;5003328;28;20017;-87
2022/11/27 04:08:41;;;;;;;2.50;1.00;;;9.90;99.90;;;;;;5030881;28;20032;-87
2022/11/27 04:11:07;;;;;;;2.17;1.05;;;9.90;99.90;;;;;;5028085;28;20033;-84
2022/11/27 04:13:33;;;;;;;2.47;1.00;;;9.90;99.90;;;;;;5037440;28;20025;-87
2022/11/27 04:16:00;;;;;;;1.58;0.93;;;9.90;99.90;;;;;;4994610;28;20568;-86
2022/11/27 04:18:26;;;;;;;2.10;1.10;;;9.90;99.90;;;;;;5046848;28;20635;-85
2022/11/27 04:20:52;;;;;;;3.43;1.27;;;9.90;99.90;;;;;;5011641;28;20029;-85
2022/11/27 04:23:17;;;;;;;3.03;1.40;;;9.90;99.90;;;;;;5060439;28;20030;-88
2022/11/27 04:25:43;;;;;;;2.97;1.50;;;9.90;99.90;;;;;;5057264;28;20044;-87
2022/11/27 04:28:09;;;;;;;5.78;1.70;;;9.90;99.90;;;;;;5029162;28;20025;-85
2022/11/27 04:30:35;;;;;;;3.47;1.17;;;9.90;99.90;;;;;;5022302;28;20354;-87
2022/11/27 04:33:00;;;;;;;2.65;1.33;;;9.90;99.90;;;;;;5052109;28;20663;-87
2022/11/27 04:35:26;;;;;;;3.33;1.43;;;9.90;99.90;;;;;;5034634;28;20051;-87
2022/11/27 04:37:52;;;;;;;3.65;1.40;;;9.90;99.90;;;;;;5042356;28;20154;-86
2022/11/27 04:40:17;;;;;;;3.90;1.40;;;9.80;99.90;;;;;;5036191;28;20025;-87
2022/11/27 04:42:43;;;;;;;4.43;1.30;;;9.80;99.90;;;;;;5018130;28;20309;-88
2022/11/27 04:45:09;;;;;;;3.87;1.30;;;9.80;99.90;;;;;;5028837;28;20035;-87
2022/11/27 04:47:35;;;;;;;5.25;1.40;;;9.70;99.90;;;;;;5014680;28;20037;-87
2022/11/27 04:50:00;;;;;;;3.23;1.40;;;9.70;99.90;;;;;;5011539;28;20048;-87
2022/11/27 04:52:26;;;;;;;2.40;1.23;;;9.70;99.90;;;;;;5001069;28;20275;-88
2022/11/27 04:54:52;;;;;;;4.97;1.30;;;9.60;99.90;;;;;;5010448;28;20053;-87
2022/11/27 04:57:17;;;;;;;3.95;1.20;;;9.60;99.90;;;;;;5013732;28;20025;-85
2022/11/27 04:59:43;;;;;;;2.17;1.10;;;9.60;99.90;;;;;;5021761;28;20225;-86
2022/11/27 05:02:09;;;;;;;4.07;1.20;;;9.60;99.90;;;;;;5003231;28;20385;-88
2022/11/27 05:04:34;;;;;;;2.63;1.20;;;9.60;99.90;;;;;;5024191;28;20051;-87
2022/11/27 05:07:00;;;;;;;3.00;1.40;;;9.60;99.90;;;;;;5029023;28;20200;-88
2022/11/27 05:09:25;;;;;;;3.83;1.50;;;9.50;99.90;;;;;;5001645;28;20083;-86
2022/11/27 05:11:51;;;;;;;3.83;1.30;;;9.50;99.90;;;;;;5014199;28;20158;-87
2022/11/27 05:14:17;;;;;;;3.58;1.33;;;9.50;99.90;;;;;;5009801;28;20179;-88
2022/11/27 05:16:51;;;;;;;5.10;1.50;;;9.50;99.90;;;;;;5012554;28;20246;-88
2022/11/27 05:19:18;;;;;;;3.05;1.33;;;9.50;99.90;;;;;;5030108;28;20052;-87
2022/11/27 05:21:45;;;;;;;3.67;1.23;;;9.50;99.90;;;;;;5021576;28;20132;-88
2022/11/27 05:24:11;;;;;;;3.55;1.40;;;9.40;99.90;;;;;;5015617;28;20489;-85
2022/11/27 05:26:37;;;;;;;2.70;1.20;;;9.40;99.90;;;;;;5028816;28;20028;-86
2022/11/27 05:29:03;;;;;;;2.97;1.35;;;9.40;99.90;;;;;;5048909;28;20561;-86
2022/11/27 05:31:29;;;;;;;3.58;1.23;;;9.40;99.90;;;;;;5018534;28;20025;-86
2022/11/27 05:33:55;;;;;;;2.05;1.13;;;9.30;99.90;;;;;;5013774;28;20335;-86
2022/11/27 05:36:20;;;;;;;3.53;1.20;;;9.30;99.90;;;;;;5027747;28;20036;-86
2022/11/27 05:38:46;;;;;;;2.45;1.23;;;9.30;99.90;;;;;;5017708;28;20526;-87
2022/11/27 05:41:12;;;;;;;4.10;1.37;;;9.30;99.90;;;;;;5018917;28;20020;-87
2022/11/27 05:43:37;;;;;;;2.90;1.50;;;9.30;99.90;;;;;;5012979;28;20029;-86
2022/11/27 05:46:08;;;;;;;2.85;1.20;;;9.30;99.90;;;;;;5039443;28;20677;-86
2022/11/27 05:48:35;;;;;;;3.50;1.40;;;9.20;99.90;;;;;;4999459;28;20030;-85
2022/11/27 05:51:02;;;;;;;3.22;1.30;;;9.30;99.90;;;;;;5022165;28;20477;-86
2022/11/27 05:53:28;;;;;;;3.60;1.50;;;9.20;99.90;;;;;;5035855;28;20033;-86
2022/11/27 05:55:54;;;;;;;5.35;1.63;;;9.20;99.90;;;;;;5014429;28;20488;-86
2022/11/27 05:58:19;;;;;;;3.65;1.55;;;9.20;99.90;;;;;;5029013;28;20036;-86
2022/11/27 06:00:45;;;;;;;3.53;1.30;;;9.20;99.90;;;;;;5021767;28;20629;-86
2022/11/27 06:03:11;;;;;;;3.10;1.40;;;9.10;99.90;;;;;;5006374;28;20049;-85
2022/11/27 06:05:40;;;;;;;3.90;1.43;;;9.10;99.90;;;;;;5012426;28;20036;-86
2022/11/27 06:08:06;;;;;;;2.63;1.48;;;9.20;99.90;;;;;;5017253;28;20020;-85
2022/11/27 06:10:32;;;;;;;3.63;1.48;;;9.10;99.90;;;;;;5035407;28;20390;-84
2022/11/27 06:12:57;;;;;;;4.43;1.20;;;9.10;99.90;;;;;;5029712;28;20025;-84
2022/11/27 06:15:23;;;;;;;4.03;1.30;;;9.10;99.90;;;;;;5016495;28;20036;-86
2022/11/27 06:17:49;;;;;;;2.97;1.33;;;9.20;99.90;;;;;;5020564;28;20268;-85
2022/11/27 06:20:15;;;;;;;3.40;1.50;;;9.10;99.90;;;;;;5008483;28;20026;-86
2022/11/27 06:22:40;;;;;;;2.50;1.17;;;9.10;99.90;;;;;;5045277;28;20056;-84
2022/11/27 06:25:07;;;;;;;3.67;1.50;;;9.10;99.90;;;;;;5014615;28;20513;-85
2022/11/27 06:27:33;;;;;;;2.72;1.50;;;9.10;99.90;;;;;;5025594;28;20624;-86
2022/11/27 06:29:59;;;;;;;3.63;1.50;;;9.10;99.90;;;;;;5060328;28;20059;-85
2022/11/27 06:32:25;;;;;;;4.53;1.70;;;9.10;99.90;;;;;;4999418;28;20123;-86
2022/11/27 06:34:51;;;;;;;2.58;1.38;;;9.10;99.90;;;;;;5029404;28;21062;-86
2022/11/27 06:37:16;;;;;;;4.00;1.37;;;9.10;99.90;;;;;;5010700;28;20493;-86
2022/11/27 06:39:42;;;;;;;4.28;1.50;;;9.10;99.90;;;;;;5001471;28;20017;-86
2022/11/27 06:42:08;;;;;;;4.27;1.43;;;9.10;99.90;;;;;;5031462;28;20496;-87
2022/11/27 06:44:33;;;;;;;3.85;1.40;;;9.10;99.90;;;;;;5012620;28;20025;-84
2022/11/27 06:46:59;;;;;;;2.93;1.60;;;9.10;99.90;;;;;;5047057;28;20651;-87
2022/11/27 06:49:25;;;;;;;3.60;1.38;;;9.10;99.90;;;;;;5058817;28;20371;-86
2022/11/27 06:51:50;;;;;;;3.60;1.40;;;9.10;99.90;;;;;;4991327;28;20649;-84
2022/11/27 06:54:16;;;;;;;2.97;1.27;;;9.10;99.90;;;;;;5044304;28;20310;-86
2022/11/27 06:56:42;;;;;;;4.13;1.50;;;9.10;99.90;;;;;;5013403;28;20505;-86
2022/11/27 06:59:13;;;;;;;3.13;1.30;;;9.10;99.90;;;;;;5019301;28;20009;-86
2022/11/27 07:01:39;;;;;;;3.28;1.35;;;9.10;99.90;;;;;;5031221;28;20026;-86
2022/11/27 07:04:05;;;;;;;2.88;1.40;;;9.20;99.90;;;;;;5045833;28;20064;-87
2022/11/27 07:06:30;;;;;;;3.70;1.40;;;9.10;99.90;;;;;;4998549;28;20469;-86
2022/11/27 07:08:56;;;;;;;2.53;1.20;;;9.20;99.90;;;;;;5042354;28;20214;-87
2022/11/27 07:11:25;;;;;;;3.95;1.80;;;9.20;99.90;;;;;;5031511;28;20026;-87
2022/11/27 07:13:53;;;;;;;2.87;1.27;;;9.20;99.90;;;;;;5001118;28;20048;-87
2022/11/27 07:16:19;;;;;;;3.85;1.30;;;9.20;99.90;;;;;;5007025;28;20024;-87
2022/11/27 07:18:51;;;;;;;3.35;1.40;;;9.20;99.90;;;;;;5026717;28;20037;-87
2022/11/27 07:21:17;;;;;;;2.50;1.05;;;9.20;99.90;;;;;;5008059;28;20744;-87
2022/11/27 07:23:42;;;;;;;4.03;1.70;;;9.20;99.90;;;;;;5019619;28;20519;-86
2022/11/27 07:26:11;;;;;;;3.90;1.38;;;9.20;99.90;;;;;;4998859;28;20021;-87
2022/11/27 07:28:37;;;;;;;2.83;1.30;;;9.20;99.90;;;;;;5030224;28;20044;-85
2022/11/27 07:31:04;;;;;;;4.68;1.55;;;9.30;99.90;;;;;;5033321;28;20040;-87
2022/11/27 07:33:29;;;;;;;4.63;1.37;;;9.30;99.90;;;;;;5057527;28;20029;-87
2022/11/27 07:36:19;;;;;;;4.50;1.23;;;9.30;99.90;;;;;;5025196;28;20036;-86
2022/11/27 07:38:46;;;;;;;2.55;1.25;;;9.30;99.90;;;;;;4991343;28;20064;-87
2022/11/27 07:41:12;;;;;;;4.90;2.10;;;9.30;99.90;;;;;;5009671;28;20513;-86
2022/11/27 07:43:38;;;;;;;4.07;1.30;;;9.30;99.90;;;;;;5001277;28;20371;-86
2022/11/27 07:46:31;;;;;;;3.25;1.50;;;9.30;99.90;;;;;;5026595;28;20021;-87
2022/11/27 07:48:59;;;;;;;4.38;1.20;;;9.30;99.90;;;;;;5023230;28;20602;-86
2022/11/27 07:51:24;;;;;;;2.30;1.20;;;9.30;99.90;;;;;;5031216;28;20030;-85
2022/11/27 07:53:50;;;;;;;2.77;1.27;;;9.30;99.90;;;;;;5024886;28;20033;-87
2022/11/27 07:56:17;;;;;;;3.35;1.40;;;9.40;99.90;;;;;;5025803;28;21247;-87
2022/11/27 07:58:43;;;;;;;3.28;1.30;;;9.40;99.90;;;;;;5013274;28;20074;-87
2022/11/27 08:01:17;;;;;;;2.93;1.10;;;9.40;99.90;;;;;;5014440;28;20029;-86
2022/11/27 08:03:43;;;;;;;3.53;1.40;;;9.40;99.90;;;;;;5029040;28;20462;-86
2022/11/27 08:06:19;;;;;;;3.50;1.45;;;9.40;99.90;;;;;;5001578;28;20020;-88
2022/11/27 08:08:45;;;;;;;3.00;1.25;;;9.40;99.90;;;;;;5017516;28;20871;-87
2022/11/27 08:11:22;;;;;;;2.80;1.30;;;9.40;99.90;;;;;;5013729;28;20104;-87
2022/11/27 08:13:49;;;;;;;3.10;1.52;;;9.40;99.90;;;;;;5003241;28;20272;-87
2022/11/27 08:16:15;;;;;;;3.60;1.45;;;9.40;99.90;;;;;;5026481;28;20245;-85
2022/11/27 08:18:41;;;;;;;2.83;1.50;;;9.40;99.90;;;;;;5031410;28;20500;-86
2022/11/27 08:21:06;;;;;;;2.93;1.43;;;9.50;99.90;;;;;;5007158;28;20021;-86
2022/11/27 08:23:32;;;;;;;3.70;1.30;;;9.40;99.90;;;;;;5013921;28;20022;-87
2022/11/27 08:25:58;;;;;;;2.60;1.27;;;9.40;99.90;;;;;;5009194;28;20071;-87
2022/11/27 08:28:23;;;;;;;4.20;1.30;;;9.40;99.90;;;;;;5009726;28;20585;-87
2022/11/27 08:31:00;;;;;;;2.37;1.10;;;9.40;99.90;;;;;;5027205;28;20029;-86
2022/11/27 08:33:26;;;;;;;3.08;1.55;;;9.50;99.90;;;;;;5016872;28;20030;-86
2022/11/27 08:35:53;;;;;;;3.72;1.35;;;9.50;99.90;;;;;;5038433;28;20020;-87
2022/11/27 08:38:19;;;;;;;2.63;1.30;;;9.40;99.90;;;;;;5017165;28;20224;-87
2022/11/27 08:40:44;;;;;;;4.93;1.60;;;9.50;99.90;;;;;;5015733;28;20075;-86
2022/11/27 08:43:10;;;;;;;3.00;1.48;;;9.40;99.90;;;;;;5023296;28;20025;-87
2022/11/27 08:45:39;;;;;;;3.30;1.60;;;9.50;99.90;;;;;;5017285;28;20110;-87
2022/11/27 08:48:05;;;;;;;4.47;1.70;;;9.50;99.90;;;;;;5008563;28;20466;-87
2022/11/27 08:50:30;;;;;;;3.53;1.80;;;9.50;99.90;;;;;;5013093;28;20028;-85
2022/11/27 08:52:56;;;;;;;3.17;1.60;;;9.50;99.90;;;;;;4997527;28;20378;-85
2022/11/27 08:55:22;;;;;;;4.32;1.70;;;9.50;99.90;;;;;;4993343;28;20629;-86
2022/11/27 08:57:47;;;;;;;3.90;1.73;;;9.50;99.90;;;;;;5043989;28;20457;-87
2022/11/27 09:00:13;;;;;;;3.78;1.88;;;9.50;99.90;;;;;;5013167;28;20189;-85
2022/11/27 09:02:39;;;;;;;2.90;1.50;;;9.60;99.90;;;;;;5026275;28;21602;-87
2022/11/27 09:05:05;;;;;;;3.03;1.70;;;9.50;99.90;;;;;;5015817;28;20361;-85
2022/11/27 09:07:30;;;;;;;5.18;1.90;;;9.60;99.90;;;;;;5037253;28;20035;-86
2022/11/27 09:09:56;;;;;;;4.80;1.67;;;9.60;99.90;;;;;;5003255;28;20063;-86
2022/11/27 09:12:22;;;;;;;3.23;1.40;;;9.60;99.90;;;;;;4996931;28;20669;-85
2022/11/27 09:14:47;;;;;;;3.50;1.50;;;9.60;99.90;;;;;;5042096;28;20029;-85
2022/11/27 09:17:13;;;;;;;3.60;1.60;;;9.60;99.90;;;;;;4989948;28;20025;-85
2022/11/27 09:19:39;;;;;;;2.90;1.60;;;9.60;99.90;;;;;;5037758;28;20036;-86
2022/11/27 09:22:04;;;;;;;3.93;1.80;;;9.60;99.90;;;;;;5032886;28;20028;-85
2022/11/27 09:24:30;;;;;;;4.60;2.00;;;9.60;99.90;;;;;;5016629;28;20029;-86
2022/11/27 09:26:55;;;;;;;2.63;1.40;;;9.60;99.90;;;;;;4998591;28;20075;-84
2022/11/27 09:29:21;;;;;;;3.40;1.58;;;9.60;99.90;;;;;;5014215;28;20033;-85
2022/11/27 09:31:47;;;;;;;2.87;1.40;;;9.60;99.90;;;;;;4982528;28;20025;-85
2022/11/27 09:34:13;;;;;;;3.60;1.50;;;9.60;99.90;;;;;;5003417;28;20029;-85
2022/11/27 09:36:39;;;;;;;3.53;1.70;;;9.60;99.90;;;;;;5008174;28;20259;-85
2022/11/27 09:39:05;;;;;;;3.22;1.70;;;9.60;99.90;;;;;;5023326;28;20087;-85
2022/11/27 09:41:51;;;;;;;4.37;1.93;;;9.60;99.90;;;;;;5017294;28;20534;-84
2022/11/27 09:44:38;;;;;;;4.97;1.48;;;9.60;99.90;;;;;;5003158;28;21242;-85
2022/11/27 09:47:20;;;;;;;4.28;1.48;;;9.60;99.90;;;;;;5015479;28;20033;-84
2022/11/27 09:50:01;;;;;;;3.20;1.50;;;9.60;99.90;;;;;;5002668;28;21124;-85
2022/11/27 09:52:33;;;;;;;3.53;1.50;;;9.60;99.90;;;;;;5044121;28;20127;-84
2022/11/27 09:55:30;;;;;;;3.35;1.48;;;9.60;99.90;;;;;;5034060;28;20115;-84
2022/11/27 09:58:05;;;;;;;3.20;1.50;;;9.60;99.90;;;;;;5005497;28;20761;-85
2022/11/27 10:00:31;;;;;;;2.92;1.55;;;9.60;99.90;;;;;;5025816;28;20017;-83
2022/11/27 10:02:58;;;;;;;3.38;1.77;;;9.60;99.90;;;;;;4973645;28;21349;-84
2022/11/27 10:05:28;;;;;;;2.73;1.40;;;9.60;99.90;;;;;;5033103;28;20078;-83
2022/11/27 10:08:16;;;;;;;3.08;1.40;;;9.60;99.90;;;;;;5013948;28;20138;-84
2022/11/27 10:10:54;;;;;;;3.03;1.45;;;9.60;99.90;;;;;;5007732;28;20037;-84
2022/11/27 10:13:20;;;;;;;3.45;1.50;;;9.60;99.90;;;;;;5008474;28;20124;-83
2022/11/27 10:16:09;;;;;;;2.70;1.43;;;9.60;99.90;;;;;;5003869;28;20041;-84
2022/11/27 10:19:16;;;;;;;2.70;1.50;;;9.60;99.90;;;;;;5001385;28;20029;-84
2022/11/27 10:22:10;;;;;;;3.63;1.42;;;9.70;99.90;;;;;;4976775;28;20032;-83
2022/11/27 10:25:11;;;;;;;4.75;2.20;;;9.70;99.90;;;;;;5028731;28;21353;-84
2022/11/27 10:27:44;;;;;;;3.73;1.60;;;9.80;99.90;;;;;;4986443;28;20122;-84
2022/11/27 10:30:19;;;;;;;3.28;1.50;;;9.80;99.90;;;;;;5003544;28;20079;-84
2022/11/27 10:32:48;;;;;;;3.97;2.10;;;9.80;99.90;;;;;;5016597;28;20028;-86
2022/11/27 10:35:20;;;;;;;5.50;1.67;;;9.80;99.90;;;;;;5029505;28;20037;-82
2022/11/27 10:38:09;;;;;;;3.10;1.70;;;9.80;99.90;;;;;;5012692;28;20025;-83
2022/11/27 10:41:06;;;;;;;2.83;1.37;;;9.80;99.90;;;;;;5026085;28;20033;-81
2022/11/27 10:43:33;;;;;;;2.70;1.48;;;9.90;99.90;;;;;;5015055;28;20720;-82
2022/11/27 10:46:12;;;;;;;3.60;2.00;;;9.90;99.90;;;;;;4987346;28;20756;-82
2022/11/27 10:48:38;;;;;;;3.40;1.88;;;9.90;99.90;;;;;;5038666;28;20112;-84
2022/11/27 10:51:23;;;;;;;3.37;1.77;;;9.90;99.90;;;;;;5018426;28;20250;-82
2022/11/27 10:53:54;;;;;;;2.53;1.50;;;9.90;99.90;;;;;;5025773;28;20038;-86
2022/11/27 10:56:47;;;;;;;2.78;1.70;;;9.90;99.90;;;;;;5027674;28;22066;-83
2022/11/27 10:59:28;;;;;;;3.78;1.77;;;9.90;99.90;;;;;;5028363;28;20029;-82
2022/11/27 11:01:56;;;;;;;3.50;1.70;;;9.90;99.90;;;;;;5016348;28;20401;-82
2022/11/27 11:04:29;;;;;;;3.23;1.70;;;9.90;99.90;;;;;;4992781;28;20529;-83
2022/11/27 11:06:55;;;;;;;2.45;1.40;;;9.90;99.90;;;;;;5021132;28;20040;-83
2022/11/27 11:09:23;;;;;;;3.33;1.38;;;9.90;99.90;;;;;;5031313;28;20047;-82
2022/11/27 11:11:49;;;;;;;2.67;1.40;;;10.00;99.90;;;;;;5050092;28;20033;-83
2022/11/27 11:14:25;;;;;;;2.50;1.60;;;10.00;99.90;;;;;;5026850;28;20025;-82
2022/11/27 11:16:53;;;;;;;3.30;1.50;;;10.00;99.90;;;;;;5022417;28;21073;-83
2022/11/27 11:19:24;;;;;;;3.10;1.55;;;10.10;99.90;;;;;;5038198;28;20021;-82
2022/11/27 11:21:51;;;;;;;4.07;1.92;;;10.10;99.90;;;;;;5016377;28;20033;-81
2022/11/27 11:24:24;;;;;;;3.40;2.17;;;10.10;99.90;;;;;;5015011;28;20029;-83
2022/11/27 11:26:53;;;;;;;4.00;2.13;;;10.10;99.90;;;;;;5016936;28;20029;-82
2022/11/27 11:29:34;;;;;;;2.97;1.57;;;10.10;99.90;;;;;;5017559;28;20022;-83
2022/11/27 11:32:11;;;;;;;3.80;1.55;;;10.10;99.90;;;;;;5011182;28;20028;-83
2022/11/27 11:34:43;;;;;;;3.53;1.55;;;10.20;99.90;;;;;;5024223;28;20126;-87
2022/11/27 11:37:26;;;;;;;3.30;1.58;;;10.20;99.90;;;;;;4993508;28;20022;-86
2022/11/27 11:39:59;;;;;;;3.22;1.85;;;10.20;99.90;;;;;;5046719;28;20021;-86
2022/11/27 11:42:30;;;;;;;3.33;1.90;;;10.30;99.90;;;;;;4997876;28;20210;-86
2022/11/27 11:45:05;;;;;;;3.08;1.55;;;10.30;99.90;;;;;;5035030;28;20028;-85
2022/11/27 11:47:31;;;;;;;4.45;2.03;;;10.30;99.90;;;;;;5013719;28;20042;-87
2022/11/27 11:49:57;;;;;;;4.47;1.80;;;10.30;99.90;;;;;;5020260;28;20024;-86
2022/11/27 11:52:54;;;;;;;4.35;2.00;;;10.40;99.90;;;;;;5024230;28;20132;-87
2022/11/27 11:55:53;;;;;;;3.72;1.80;;;10.40;99.90;;;;;;5060717;28;20417;-87
2022/11/27 11:58:27;;;;;;;3.63;1.67;;;10.50;99.90;;;;;;5008578;28;20361;-87
2022/11/27 12:01:08;;;;;;;3.67;1.75;;;10.50;99.90;;;;;;5025955;28;20056;-86
2022/11/27 12:03:58;;;;;;;3.40;2.00;;;10.60;99.90;;;;;;5001709;28;20226;-86
2022/11/27 12:06:36;;;;;;;3.92;1.70;;;10.60;99.90;;;;;;5011911;28;20191;-87
2022/11/27 12:09:07;;;;;;;4.10;1.80;;;10.60;99.90;;;;;;5033724;28;20037;-86
2022/11/27 12:11:54;;;;;;;3.20;1.67;;;10.60;99.90;;;;;;5032930;28;20126;-86
2022/11/27 12:14:44;;;;;;;3.60;2.00;;;10.70;99.90;;;;;;5001945;28;20531;-87
2022/11/27 12:17:18;;;;;;;3.60;1.90;;;10.60;99.90;;;;;;4996460;28;20038;-87
2022/11/27 12:20:04;;;;;;;4.13;1.90;;;10.60;99.90;;;;;;5019485;28;20036;-85
2022/11/27 12:22:43;;;;;;;3.42;1.85;;;10.60;99.90;;;;;;4993537;28;20032;-86
2022/11/27 12:25:24;;;;;;;3.88;1.92;;;10.60;99.90;;;;;;5026453;28;20074;-85
2022/11/27 12:28:02;;;;;;;2.90;1.50;;;10.60;99.90;;;;;;5029771;28;20028;-85
2022/11/27 12:30:52;;;;;;;4.20;2.20;;;10.60;99.90;;;;;;4992775;28;20151;-87
2022/11/27 12:33:42;;;;;;;5.00;1.75;;;10.70;99.90;;;;;;4995872;28;20024;-87
2022/11/27 12:36:16;;;;;;;3.17;1.85;;;10.70;99.90;;;;;;5010701;28;20032;-87
2022/11/27 12:39:07;;;;;;;3.65;2.25;;;10.70;99.90;;;;;;5012498;28;20553;-86
2022/11/27 12:42:06;;;;;;;4.78;1.70;;;10.70;99.90;;;;;;5011933;28;20234;-85
2022/11/27 12:44:55;;;;;;;3.40;1.70;;;10.70;99.90;;;;;;5010636;28;20230;-87
2022/11/27 12:47:33;;;;;;;3.92;2.03;;;10.70;99.90;;;;;;5013741;28;20027;-87
2022/11/27 12:50:07;;;;;;;3.95;1.88;;;10.70;99.90;;;;;;5005324;28;20113;-86
2022/11/27 12:52:44;;;;;;;3.47;1.90;;;10.80;99.90;;;;;;4995988;28;20230;-87
2022/11/27 12:55:22;;;;;;;3.60;1.73;;;10.70;99.90;;;;;;5028105;28;20048;-85
2022/11/27 12:57:49;;;;;;;2.80;1.60;;;10.80;99.90;;;;;;5054071;28;20087;-84
2022/11/27 13:00:22;;;;;;;2.95;1.50;;;10.80;99.90;;;;;;5055134;28;20044;-84
2022/11/27 13:03:03;;;;;;;3.25;1.90;;;10.80;99.90;;;;;;5012671;28;20492;-85
2022/11/27 13:05:34;;;;;;;3.10;1.83;;;10.80;99.90;;;;;;5013124;28;20065;-84
2022/11/27 13:08:29;;;;;;;3.63;1.98;;;10.80;99.90;;;;;;5003101;28;20393;-85
2022/11/27 13:11:01;;;;;;;3.50;1.60;;;10.70;99.90;;;;;;5017569;28;20068;-84
2022/11/27 13:13:44;;;;;;;4.90;1.80;;;10.70;99.90;;;;;;5007675;28;20609;-84